Time;durP1;ratioP1;P1;durP2;ratioP2;P2;SDS_P1;SDS_P2;PMS_P1;PMS_P2;Temp;Humidity;BMP_temperature;BMP_pressure;BME280_temperature;BME280_humidity;BME280_pressure;Samples;Min_cycle;Max_cycle;Signal;HPM_P1;HPM_P2
2021/12/28 00:01:51;;;;;;;14.52;11.40;;;;;;;28.80;54.29;101253.13;5014968;28;70628;-43
2021/12/28 00:04:21;;;;;;;13.25;12.02;;;;;;;28.71;54.12;101241.63;5014901;28;65721;-43
2021/12/28 00:06:52;;;;;;;14.48;12.10;;;;;;;28.89;55.01;101256.50;5016820;28;69144;-42
2021/12/28 00:09:22;;;;;;;19.98;13.68;;;;;;;28.94;55.49;101259.44;5018935;28;65713;-43
2021/12/28 00:11:52;;;;;;;20.35;16.38;;;;;;;29.01;57.25;101260.31;5018149;28;70351;-43
2021/12/28 00:14:24;;;;;;;26.10;16.58;;;;;;;29.05;58.55;101272.41;5012874;28;65159;-44
2021/12/28 00:19:43;;;;;;;66.93;38.83;;;;;;;29.11;64.74;101293.25;5017941;28;66421;-44
2021/12/28 00:22:13;;;;;;;52.60;40.03;;;;;;;29.08;65.67;101279.28;5020990;28;69144;-44
2021/12/28 00:24:44;;;;;;;65.80;44.47;;;;;;;29.10;66.40;101298.84;5021203;28;66040;-44
2021/12/28 00:27:14;;;;;;;53.35;38.97;;;;;;;29.04;66.86;101291.53;5017579;28;69962;-44
2021/12/28 00:29:44;;;;;;;56.00;37.95;;;;;;;29.10;67.39;101296.16;5021707;28;65417;-43
2021/12/28 00:32:15;;;;;;;53.78;35.58;;;;;;;29.05;68.12;101295.91;5020932;28;69136;-45
2021/12/28 00:34:45;;;;;;;47.45;33.90;;;;;;;29.08;68.36;101306.31;5022205;28;66343;-43
2021/12/28 00:37:16;;;;;;;52.75;33.38;;;;;;;29.04;68.81;101310.44;5029981;28;70388;-43
2021/12/28 00:39:46;;;;;;;52.38;36.53;;;;;;;29.06;68.88;101311.06;5027120;28;66251;-43
2021/12/28 00:42:17;;;;;;;52.00;34.55;;;;;;;28.95;69.01;101296.25;5025309;28;69686;-42
2021/12/28 00:44:47;;;;;;;46.47;32.22;;;;;;;29.04;68.60;101313.16;5022288;28;66390;-43
2021/12/28 00:47:17;;;;;;;44.88;29.70;;;;;;;29.04;68.69;101323.94;5024396;28;69780;-46
2021/12/28 00:49:48;;;;;;;29.45;25.02;;;;;;;28.99;69.34;101320.97;5017504;28;65934;-45
2021/12/28 00:52:18;;;;;;;26.85;23.08;;;;;;;29.06;69.02;101321.88;5018950;28;70206;-45
2021/12/28 00:54:49;;;;;;;24.13;21.00;;;;;;;29.08;68.40;101327.91;5014475;28;66393;-45
2021/12/28 00:57:19;;;;;;;22.60;20.38;;;;;;;29.15;68.15;101345.84;5019056;28;69559;-44
2021/12/28 00:59:50;;;;;;;25.80;21.58;;;;;;;29.17;67.88;101342.97;5019746;28;66316;-46
2021/12/28 01:02:20;;;;;;;25.77;21.05;;;;;;;29.27;67.74;101348.81;5014229;28;70016;-44
2021/12/28 01:04:51;;;;;;;33.25;21.85;;;;;;;29.28;67.57;101350.50;5013954;28;66190;-45
2021/12/28 01:07:21;;;;;;;27.48;22.65;;;;;;;29.34;67.44;101357.81;5012288;28;69797;-45
2021/12/28 01:09:52;;;;;;;26.92;22.55;;;;;;;29.35;67.44;101359.47;5013350;28;66266;-45
2021/12/28 01:12:23;;;;;;;24.40;21.88;;;;;;;29.37;67.23;101367.41;5005579;28;70072;-45
2021/12/28 01:14:54;;;;;;;23.75;21.17;;;;;;;29.46;67.32;101370.78;5017687;28;67244;-45
2021/12/28 01:17:24;;;;;;;23.88;20.50;;;;;;;29.43;66.72;101366.59;5018270;28;69952;-45
2021/12/28 01:19:55;;;;;;;22.13;19.80;;;;;;;29.51;66.50;101373.72;5017578;28;65595;-45
2021/12/28 01:22:25;;;;;;;24.08;20.25;;;;;;;29.55;66.58;101374.97;5016556;28;70383;-44
2021/12/28 01:24:56;;;;;;;29.13;21.90;;;;;;;29.52;66.43;101372.69;5017280;28;66505;-45
2021/12/28 01:27:27;;;;;;;25.67;20.55;;;;;;;29.56;66.08;101376.63;5016040;28;70616;-45
2021/12/28 01:29:57;;;;;;;21.30;19.20;;;;;;;29.64;66.14;101383.78;5014784;28;66136;-46
2021/12/28 01:32:28;;;;;;;20.60;18.63;;;;;;;29.66;65.85;101381.72;5016799;28;70481;-45
2021/12/28 01:34:58;;;;;;;26.30;20.20;;;;;;;29.65;65.78;101375.50;5015946;28;66352;-45
2021/12/28 01:37:29;;;;;;;21.40;19.27;;;;;;;29.70;65.27;101377.56;5016736;28;69169;-45
2021/12/28 01:40:00;;;;;;;23.00;19.35;;;;;;;29.72;65.36;101381.75;5016879;28;65977;-46
2021/12/28 01:42:32;;;;;;;23.05;19.05;;;;;;;29.70;65.39;101378.44;5016545;28;70789;-46
2021/12/28 01:45:02;;;;;;;20.50;18.42;;;;;;;29.75;64.88;101375.94;5016799;28;66080;-45
2021/12/28 01:47:33;;;;;;;23.77;19.38;;;;;;;29.78;64.93;101374.69;5014704;28;70150;-46
2021/12/28 01:50:04;;;;;;;20.33;18.42;;;;;;;29.80;65.10;101384.28;5006505;28;65385;-45
2021/12/28 01:52:34;;;;;;;19.00;17.33;;;;;;;29.81;64.97;101380.56;5016838;28;70196;-44
2021/12/28 01:55:05;;;;;;;18.95;17.08;;;;;;;29.84;64.45;101374.75;5015860;28;66112;-46
2021/12/28 01:57:36;;;;;;;20.27;17.52;;;;;;;29.87;64.79;101378.09;5014463;28;71319;-45
2021/12/28 02:00:07;;;;;;;18.73;16.83;;;;;;;29.84;64.71;101369.34;5016988;28;65479;-45
2021/12/28 02:02:41;;;;;;;18.83;17.02;;;;;;;29.91;64.58;101379.34;5015107;28;70260;-45
2021/12/28 02:05:12;;;;;;;19.60;17.53;;;;;;;29.91;64.28;101372.06;5013068;28;65041;-45
2021/12/28 02:07:43;;;;;;;19.20;17.17;;;;;;;29.93;64.03;101358.34;5013076;28;70127;-47
2021/12/28 02:10:13;;;;;;;18.65;17.10;;;;;;;29.97;64.11;101362.28;5007580;28;66830;-44
2021/12/28 02:12:44;;;;;;;21.63;18.38;;;;;;;29.94;63.96;101346.47;5015985;28;69388;-45
2021/12/28 02:15:15;;;;;;;19.38;17.33;;;;;;;29.99;63.87;101349.41;5016890;28;66096;-45
2021/12/28 02:17:46;;;;;;;20.00;18.10;;;;;;;30.02;63.40;101354.41;5014501;28;69558;-45
2021/12/28 02:20:18;;;;;;;18.45;16.67;;;;;;;30.06;63.81;101344.84;5031881;28;64868;-44
2021/12/28 02:22:49;;;;;;;18.00;16.40;;;;;;;30.06;63.46;101347.53;5014988;28;69541;-44
2021/12/28 02:25:20;;;;;;;20.25;18.13;;;;;;;30.07;63.47;101346.53;5010645;28;66365;-44
2021/12/28 02:27:52;;;;;;;19.27;17.27;;;;;;;30.07;63.10;101335.72;5015125;28;70517;-47
2021/12/28 02:30:22;;;;;;;17.98;16.42;;;;;;;30.11;63.65;101330.72;5014297;28;65452;-45
2021/12/28 02:32:53;;;;;;;17.92;16.23;;;;;;;30.14;62.78;101330.31;5015032;28;69378;-44
2021/12/28 02:35:26;;;;;;;19.13;17.13;;;;;;;30.07;63.02;101308.66;5002186;28;67361;-45
2021/12/28 02:37:56;;;;;;;17.73;16.13;;;;;;;30.21;62.64;101331.16;5008799;28;70374;-45
2021/12/28 02:40:30;;;;;;;18.30;16.50;;;;;;;30.07;62.80;101305.94;5013542;28;65179;-44
2021/12/28 02:43:03;;;;;;;18.30;16.60;;;;;;;30.19;62.89;101317.00;5012121;28;68704;-45
2021/12/28 02:45:39;;;;;;;18.45;16.65;;;;;;;30.27;62.96;101330.38;5012084;28;66862;-45
2021/12/28 02:48:10;;;;;;;17.48;15.95;;;;;;;30.27;62.85;101331.19;5007067;28;70298;-44
2021/12/28 02:50:48;;;;;;;17.48;15.90;;;;;;;30.30;62.10;101323.72;5014308;28;66236;-45
2021/12/28 02:53:19;;;;;;;17.25;15.75;;;;;;;30.17;62.37;101309.09;5014351;28;69895;-45
2021/12/28 02:55:51;;;;;;;17.27;15.63;;;;;;;30.32;62.17;101324.34;5015376;28;66522;-44
2021/12/28 02:58:42;;;;;;;18.95;17.17;;;;;;;30.15;62.74;101303.06;5006381;28;68753;-45
2021/12/28 03:01:22;;;;;;;22.02;16.17;;;;;;;30.39;61.79;101314.34;5015958;28;66542;-44
2021/12/28 03:03:58;;;;;;;18.10;16.30;;;;;;;30.43;62.20;101318.31;5016748;28;70585;-45
2021/12/28 03:06:30;;;;;;;17.02;15.48;;;;;;;30.41;61.76;101307.69;5016243;28;64696;-45
2021/12/28 03:09:05;;;;;;;18.20;16.65;;;;;;;30.47;61.95;101319.56;5008639;28;70241;-45
2021/12/28 03:11:35;;;;;;;18.00;16.17;;;;;;;30.47;61.49;101319.56;5013039;28;66690;-45
2021/12/28 03:14:06;;;;;;;18.77;16.98;;;;;;;30.48;61.50;101307.72;5014841;28;69990;-44
2021/12/28 03:16:38;;;;;;;19.08;17.23;;;;;;;30.51;61.83;101304.59;5012816;28;66285;-46
2021/12/28 03:19:09;;;;;;;18.73;17.02;;;;;;;30.55;61.69;101296.88;5011932;28;69577;-46
2021/12/28 03:21:41;;;;;;;17.92;16.35;;;;;;;30.48;61.35;101284.19;5015393;28;65733;-44
2021/12/28 03:24:11;;;;;;;19.45;17.67;;;;;;;30.56;61.42;101301.22;5016117;28;70454;-43
2021/12/28 03:26:42;;;;;;;18.40;16.70;;;;;;;30.59;60.81;101296.25;5015673;28;66133;-43
2021/12/28 03:29:12;;;;;;;18.77;16.90;;;;;;;30.63;61.36;101294.78;5014867;28;70017;-45
2021/12/28 03:31:43;;;;;;;18.85;17.10;;;;;;;30.64;61.43;101287.50;5011711;28;66888;-45
2021/12/28 03:34:14;;;;;;;19.05;17.33;;;;;;;30.60;60.55;101276.25;5014518;28;70105;-45
2021/12/28 03:36:44;;;;;;;22.02;18.33;;;;;;;30.65;61.05;101279.16;5013347;28;66451;-45
2021/12/28 03:39:15;;;;;;;18.77;16.77;;;;;;;30.65;60.44;101278.34;5008228;28;69148;-45
2021/12/28 03:41:46;;;;;;;19.77;17.85;;;;;;;30.71;60.46;101277.50;5014748;28;66568;-45
2021/12/28 03:44:16;;;;;;;19.73;17.80;;;;;;;30.70;60.42;101263.13;5013345;28;70109;-44
2021/12/28 03:46:47;;;;;;;18.42;16.63;;;;;;;30.73;60.37;101265.41;5015008;28;66515;-45
2021/12/28 03:49:17;;;;;;;18.45;16.60;;;;;;;30.73;60.68;101260.00;5014539;28;70189;-45
2021/12/28 03:51:48;;;;;;;19.00;17.00;;;;;;;30.71;60.03;101256.66;5013308;28;65434;-46
2021/12/28 03:54:19;;;;;;;20.60;17.58;;;;;;;30.79;60.29;101249.38;5004074;28;69668;-44
2021/12/28 03:56:49;;;;;;;17.45;16.13;;;;;;;30.81;60.29;101244.59;5012457;28;65319;-45
2021/12/28 03:59:20;;;;;;;18.25;16.38;;;;;;;30.80;60.16;101232.94;5011922;28;70605;-45
2021/12/28 04:01:52;;;;;;;17.63;16.05;;;;;;;30.84;60.24;101238.75;5016911;28;66229;-45
2021/12/28 04:04:24;;;;;;;18.65;16.80;;;;;;;30.84;60.17;101233.31;5009026;28;70113;-45
2021/12/28 04:06:54;;;;;;;18.35;16.55;;;;;;;30.89;60.18;101241.66;5014805;28;65587;-44
2021/12/28 04:09:56;;;;;;;17.48;15.90;;;;;;;30.94;59.89;101236.44;5016335;28;69688;-46
2021/12/28 04:12:15;;;;;;;20.17;16.38;;;;;;;30.79;59.76;101208.75;5016215;28;66298;-45
2021/12/28 04:14:45;;;;;;;17.75;16.08;;;;;;;30.93;60.02;101219.34;5017593;28;70430;-46
2021/12/28 04:17:15;;;;;;;21.27;16.58;;;;;;;31.00;59.76;101216.63;5017675;28;66475;-45
2021/12/28 04:19:47;;;;;;;19.73;16.27;;;;;;;31.02;59.74;101209.13;5016524;28;69597;-46
2021/12/28 04:22:17;;;;;;;16.67;15.18;;;;;;;31.04;59.94;101207.03;5014363;28;66112;-45
2021/12/28 04:24:48;;;;;;;17.60;15.85;;;;;;;31.07;59.92;101195.75;5017292;28;70776;-46
2021/12/28 04:27:24;;;;;;;18.15;16.52;;;;;;;31.05;59.54;101197.03;5015125;28;66734;-45
2021/12/28 04:29:54;;;;;;;17.05;15.48;;;;;;;31.10;59.92;101192.63;5018034;28;69958;-46
2021/12/28 04:32:24;;;;;;;16.83;15.27;;;;;;;31.13;59.26;101189.47;5015823;28;65358;-44
2021/12/28 04:34:55;;;;;;;17.02;15.40;;;;;;;31.10;59.52;101180.97;5015010;28;70198;-43
2021/12/28 04:37:32;;;;;;;16.98;15.45;;;;;;;31.12;59.48;101176.13;5014405;28;65437;-44
2021/12/28 04:40:05;;;;;;;17.70;16.00;;;;;;;31.18;59.29;101186.13;5015169;28;70433;-45
2021/12/28 04:42:36;;;;;;;18.30;16.58;;;;;;;31.21;59.21;101184.88;5018671;28;66435;-45
2021/12/28 04:45:10;;;;;;;17.77;16.20;;;;;;;31.20;58.89;101172.34;5017913;28;70071;-45
2021/12/28 04:47:40;;;;;;;16.33;15.02;;;;;;;31.23;59.19;101171.91;5012526;28;66873;-46
2021/12/28 04:50:12;;;;;;;16.02;14.60;;;;;;;31.24;59.22;101168.19;5017223;28;70071;-45
2021/12/28 04:52:43;;;;;;;17.27;15.57;;;;;;;31.24;58.77;101173.59;5016054;28;66714;-43
2021/12/28 04:55:18;;;;;;;18.55;16.85;;;;;;;31.19;59.04;101155.28;5015065;28;70140;-44
2021/12/28 04:57:48;;;;;;;18.02;16.30;;;;;;;31.23;58.89;101155.66;5015454;28;66194;-45
2021/12/28 05:00:21;;;;;;;18.67;16.83;;;;;;;31.13;58.84;101124.44;5015543;28;70015;-45
2021/12/28 05:02:52;;;;;;;19.05;17.20;;;;;;;31.28;59.04;101153.13;5017995;28;65559;-44
2021/12/28 05:05:22;;;;;;;18.77;16.83;;;;;;;31.28;58.83;101147.72;5017501;28;70124;-45
2021/12/28 05:07:53;;;;;;;21.38;17.05;;;;;;;31.28;59.03;101136.88;5015955;28;66819;-44
2021/12/28 05:10:24;;;;;;;19.10;17.10;;;;;;;31.26;59.29;101130.84;5015403;28;70175;-44
2021/12/28 05:12:54;;;;;;;18.73;17.02;;;;;;;31.26;59.17;101133.53;5015699;28;66884;-44
2021/12/28 05:15:25;;;;;;;19.63;17.65;;;;;;;31.27;59.26;101124.38;5016511;28;69603;-45
2021/12/28 05:17:55;;;;;;;18.60;16.83;;;;;;;31.27;58.89;101119.78;5017307;28;66501;-45
2021/12/28 05:20:26;;;;;;;18.30;16.50;;;;;;;31.31;59.16;101114.75;5015971;28;69293;-45
2021/12/28 05:22:57;;;;;;;17.52;15.93;;;;;;;31.33;58.52;101112.66;5017455;28;66792;-45
2021/12/28 05:25:27;;;;;;;17.42;15.70;;;;;;;31.33;58.97;101112.66;5015594;28;69591;-45
2021/12/28 05:27:57;;;;;;;21.17;15.82;;;;;;;31.34;58.83;101114.31;5015607;28;65686;-43
2021/12/28 05:30:28;;;;;;;18.42;16.60;;;;;;;31.29;58.75;101096.00;5004662;28;70796;-45
2021/12/28 05:32:59;;;;;;;17.45;15.60;;;;;;;31.37;59.13;101100.34;5013250;28;66707;-44
2021/12/28 05:35:29;;;;;;;18.05;16.13;;;;;;;31.37;58.67;101082.25;5028108;28;70645;-44
2021/12/28 05:38:00;;;;;;;16.65;15.05;;;;;;;31.39;58.58;101090.13;5017133;28;66368;-45
2021/12/28 05:40:31;;;;;;;16.92;15.30;;;;;;;31.40;58.72;101086.41;5015818;28;69359;-46
2021/12/28 05:43:01;;;;;;;17.30;15.60;;;;;;;31.41;58.99;101076.38;5014512;28;66468;-46
2021/12/28 05:45:32;;;;;;;17.30;15.80;;;;;;;31.43;58.75;101064.25;5010166;28;69873;-45
2021/12/28 05:48:03;;;;;;;16.83;15.23;;;;;;;31.43;58.83;101072.41;5013516;28;65808;-45
2021/12/28 05:50:34;;;;;;;17.05;15.25;;;;;;;31.46;58.62;101063.00;5008606;28;70587;-46
2021/12/28 05:53:04;;;;;;;15.60;14.45;;;;;;;31.47;58.42;101049.19;5018644;28;66242;-46
2021/12/28 05:55:35;;;;;;;17.67;15.35;;;;;;;31.49;58.53;101052.53;5010997;28;70246;-46
2021/12/28 05:58:06;;;;;;;16.83;15.23;;;;;;;31.45;58.77;101037.75;5016374;28;66355;-45
2021/12/28 06:00:36;;;;;;;16.60;14.93;;;;;;;31.50;58.25;101037.09;5010779;28;69802;-46
2021/12/28 06:03:07;;;;;;;16.92;15.35;;;;;;;31.52;58.36;101022.25;5012477;28;66272;-45
2021/12/28 06:05:38;;;;;;;16.13;14.68;;;;;;;31.55;58.32;101018.28;5015467;28;70274;-45
2021/12/28 06:08:08;;;;;;;19.90;15.80;;;;;;;31.56;58.28;101015.34;5020240;28;66178;-45
2021/12/28 06:11:00;;;;;;;16.27;14.88;;;;;;;31.56;58.33;101012.63;5015332;28;69659;-46
2021/12/28 06:13:30;;;;;;;16.88;14.73;;;;;;;31.58;58.09;101001.56;5017890;28;66085;-46
2021/12/28 06:16:01;;;;;;;15.98;14.10;;;;;;;31.63;58.30;101003.63;5018415;28;69896;-46
2021/12/28 06:18:31;;;;;;;15.93;14.15;;;;;;;31.63;58.26;101001.72;5011767;28;66184;-47
2021/12/28 06:21:01;;;;;;;15.05;13.85;;;;;;;31.66;58.35;100992.31;5010526;28;70143;-46
2021/12/28 06:23:32;;;;;;;16.05;14.73;;;;;;;31.66;58.29;100989.63;5017351;28;65470;-45
2021/12/28 06:26:03;;;;;;;15.90;14.38;;;;;;;31.67;58.41;100986.66;5016650;28;70665;-45
2021/12/28 06:28:33;;;;;;;15.43;13.95;;;;;;;31.59;58.20;100968.81;5017672;28;66506;-46
2021/12/28 06:31:04;;;;;;;15.10;13.73;;;;;;;31.67;58.31;100975.81;5011910;28;70194;-46
2021/12/28 06:33:34;;;;;;;14.60;13.48;;;;;;;31.69;58.11;100973.72;5016588;28;66713;-46
2021/12/28 06:36:05;;;;;;;15.43;14.20;;;;;;;31.69;57.81;100960.16;5017795;28;70269;-45
2021/12/28 06:38:36;;;;;;;14.40;13.30;;;;;;;31.71;58.22;100963.47;5016649;28;66219;-45
2021/12/28 06:41:07;;;;;;;17.85;13.70;;;;;;;31.74;58.05;100959.50;5017257;28;69370;-46
2021/12/28 06:43:37;;;;;;;13.83;12.83;;;;;;;31.71;58.21;100952.63;5010924;28;65262;-46
2021/12/28 06:46:08;;;;;;;14.52;13.23;;;;;;;31.77;57.71;100957.16;5009846;28;70179;-45
2021/12/28 06:48:39;;;;;;;14.17;13.17;;;;;;;31.77;57.73;100956.34;5016538;28;65503;-45
2021/12/28 06:51:09;;;;;;;14.27;13.05;;;;;;;31.79;58.23;100954.22;5015421;28;70439;-45
2021/12/28 06:53:40;;;;;;;13.85;12.82;;;;;;;31.82;57.88;100942.94;5013692;28;66142;-45
2021/12/28 06:56:10;;;;;;;15.07;12.70;;;;;;;31.70;57.95;100928.44;5014957;28;70085;-45
2021/12/28 06:58:42;;;;;;;13.82;12.93;;;;;;;31.82;57.98;100942.94;5016716;28;66229;-46
2021/12/28 07:01:12;;;;;;;13.30;12.35;;;;;;;31.80;57.57;100936.91;5003585;28;69664;-45
2021/12/28 07:03:43;;;;;;;12.23;11.43;;;;;;;31.85;57.44;100937.06;5011257;28;66144;-45
2021/12/28 07:06:16;;;;;;;13.55;12.57;;;;;;;31.86;57.97;100932.44;5007608;28;70169;-46
2021/12/28 07:08:46;;;;;;;12.30;11.38;;;;;;;31.89;57.75;100935.53;5004907;28;65440;-46
2021/12/28 07:11:17;;;;;;;11.95;11.15;;;;;;;31.90;57.47;100931.78;5010506;28;69611;-46
2021/12/28 07:13:48;;;;;;;13.35;12.35;;;;;;;31.91;57.68;100924.47;5024084;28;66622;-45
2021/12/28 07:16:19;;;;;;;12.48;11.25;;;;;;;31.91;57.72;100930.75;5010751;28;69801;-45
2021/12/28 07:18:50;;;;;;;16.75;11.32;;;;;;;31.91;57.83;100932.59;5015870;28;65161;-45
2021/12/28 07:21:20;;;;;;;12.68;11.43;;;;;;;31.90;57.67;100929.06;5016008;28;69685;-45
2021/12/28 07:23:50;;;;;;;12.70;11.68;;;;;;;31.94;57.43;100929.47;5010639;28;66819;-45
2021/12/28 07:26:21;;;;;;;11.68;10.80;;;;;;;31.96;57.64;100922.75;5011214;28;70136;-46
2021/12/28 07:28:53;;;;;;;11.43;10.57;;;;;;;31.95;57.78;100910.22;5011459;28;66211;-45
2021/12/28 07:31:23;;;;;;;;;;;;;;;31.75;58.32;100909.63;5012418;28;70596;-46
2021/12/28 07:33:54;;;;;;;11.63;10.75;;;;;;;31.99;57.44;100903.31;5019137;28;65644;-46
2021/12/28 07:36:24;;;;;;;11.38;10.45;;;;;;;32.00;57.73;100902.25;5014962;28;70123;-45
2021/12/28 07:38:55;;;;;;;11.20;10.10;;;;;;;32.02;57.26;100892.00;5015196;28;66662;-45
2021/12/28 07:41:25;;;;;;;11.00;10.20;;;;;;;32.07;57.42;100895.91;5015954;28;70025;-45
2021/12/28 07:43:58;;;;;;;11.10;10.18;;;;;;;32.08;57.29;100892.16;5013855;28;65559;-46
2021/12/28 07:46:28;;;;;;;10.48;9.68;;;;;;;32.10;57.44;100884.63;5014612;28;70393;-45
2021/12/28 07:48:59;;;;;;;11.13;10.32;;;;;;;32.11;57.06;100883.56;5017223;28;66175;-46
2021/12/28 07:51:31;;;;;;;10.75;9.90;;;;;;;32.13;57.06;100876.00;5007233;28;70126;-46
2021/12/28 07:54:02;;;;;;;10.63;9.88;;;;;;;32.13;57.25;100879.56;5011120;28;65438;-46
2021/12/28 07:56:33;;;;;;;11.35;10.38;;;;;;;32.16;57.39;100878.28;5010940;28;69607;-45
2021/12/28 07:59:04;;;;;;;9.75;9.15;;;;;;;32.17;57.11;100869.88;5012963;28;66825;-45
2021/12/28 08:01:35;;;;;;;10.30;9.70;;;;;;;32.19;57.25;100877.81;5016460;28;70306;-45
2021/12/28 08:04:06;;;;;;;9.90;9.20;;;;;;;32.20;57.29;100871.31;5016937;28;66055;-45
2021/12/28 08:06:36;;;;;;;9.75;9.13;;;;;;;32.25;57.21;100866.03;5012206;28;69830;-46
2021/12/28 08:09:07;;;;;;;10.00;9.35;;;;;;;32.26;56.92;100873.09;5013817;28;65378;-46
2021/12/28 08:11:37;;;;;;;9.82;8.95;;;;;;;32.28;57.00;100865.56;5008278;28;70101;-45
2021/12/28 08:14:07;;;;;;;9.32;8.70;;;;;;;32.32;57.12;100871.34;5015335;28;66397;-46
2021/12/28 08:16:38;;;;;;;9.88;9.13;;;;;;;32.35;57.09;100876.34;5015634;28;69848;-45
2021/12/28 08:19:09;;;;;;;10.32;9.48;;;;;;;32.37;56.90;100880.47;5016294;28;66259;-44
2021/12/28 08:21:46;;;;;;;10.10;9.40;;;;;;;32.40;56.97;100873.75;5012655;28;69573;-45
2021/12/28 08:24:17;;;;;;;10.57;9.73;;;;;;;32.40;56.84;100866.44;5016878;28;66302;-47
2021/12/28 08:26:47;;;;;;;9.75;8.93;;;;;;;32.41;56.76;100859.94;5013955;28;69850;-46
2021/12/28 08:29:18;;;;;;;10.38;9.35;;;;;;;32.49;56.80;100873.22;5012263;28;66248;-45
2021/12/28 08:31:49;;;;;;;9.82;9.32;;;;;;;32.47;56.96;100859.03;5014021;28;70445;-46
2021/12/28 08:34:19;;;;;;;9.70;8.85;;;;;;;32.51;56.65;100859.41;5009822;28;65518;-46
2021/12/28 08:36:49;;;;;;;9.98;9.18;;;;;;;32.58;56.94;100854.72;5014226;28;70578;-45
2021/12/28 08:39:20;;;;;;;9.48;8.88;;;;;;;32.61;56.78;100861.56;5015051;28;65704;-46
2021/12/28 08:41:50;;;;;;;9.23;8.40;;;;;;;32.64;56.29;100861.09;5012349;28;69444;-45
2021/12/28 08:44:21;;;;;;;9.07;8.57;;;;;;;32.65;56.44;100860.88;5015113;28;66287;-45
2021/12/28 08:46:51;;;;;;;10.43;9.73;;;;;;;32.68;56.39;100870.44;5018952;28;70435;-44
2021/12/28 08:49:25;;;;;;;8.93;8.43;;;;;;;32.71;56.47;100864.56;5017660;28;66476;-46
2021/12/28 08:51:55;;;;;;;9.00;8.40;;;;;;;32.75;56.32;100865.72;5018089;28;70289;-46
2021/12/28 08:54:25;;;;;;;9.73;9.00;;;;;;;32.76;56.51;100867.38;5017823;28;66074;-46
2021/12/28 08:56:56;;;;;;;9.98;8.90;;;;;;;32.80;56.34;100871.28;5016985;28;70730;-46
2021/12/28 08:59:27;;;;;;;9.05;8.55;;;;;;;32.76;56.56;100867.38;5017812;28;65184;-46
2021/12/28 09:01:57;;;;;;;8.90;8.32;;;;;;;32.86;55.89;100880.41;5014025;28;70159;-45
2021/12/28 09:04:28;;;;;;;9.85;7.93;;;;;;;32.89;56.13;100888.91;5007785;28;66889;-44
2021/12/28 09:06:58;;;;;;;8.40;7.80;;;;;;;32.79;56.18;100861.50;5018509;28;70722;-44
2021/12/28 09:09:29;;;;;;;8.55;7.93;;;;;;;32.81;55.92;100867.50;5012025;28;66144;-44
2021/12/28 09:12:00;;;;;;;7.93;7.32;;;;;;;32.96;55.67;100893.38;5010519;28;69456;-46
2021/12/28 09:14:32;;;;;;;8.07;7.68;;;;;;;32.94;56.01;100880.88;5011362;28;66028;-44
2021/12/28 09:17:04;;;;;;;8.35;7.88;;;;;;;33.00;55.89;100894.63;5016459;28;70331;-45
2021/12/28 09:19:37;;;;;;;8.35;7.72;;;;;;;33.01;55.89;100896.25;5017572;28;66195;-44
2021/12/28 09:22:07;;;;;;;8.65;8.05;;;;;;;33.02;56.11;100900.66;5012416;28;69940;-45
2021/12/28 09:24:38;;;;;;;8.52;7.55;;;;;;;33.03;55.85;100902.31;5008335;28;65680;-44
2021/12/28 09:27:13;;;;;;;8.52;7.85;;;;;;;33.04;55.67;100909.38;5011630;28;69559;-44
2021/12/28 09:29:43;;;;;;;7.88;7.18;;;;;;;33.02;55.82;100903.38;5013919;28;66460;-45
2021/12/28 09:32:19;;;;;;;7.28;6.78;;;;;;;33.05;55.87;100909.16;5013877;28;70625;-45
2021/12/28 09:34:53;;;;;;;7.32;6.85;;;;;;;32.87;55.82;100880.16;5014555;28;67144;-44
2021/12/28 09:37:24;;;;;;;7.45;7.05;;;;;;;33.01;55.87;100898.97;5014926;28;69887;-44
2021/12/28 09:39:54;;;;;;;7.60;7.13;;;;;;;33.05;55.69;100909.16;5016468;28;66271;-45
2021/12/28 09:42:26;;;;;;;7.10;6.68;;;;;;;33.06;55.78;100904.53;5011596;28;69638;-43
2021/12/28 09:44:56;;;;;;;7.63;7.13;;;;;;;33.05;55.78;100906.44;5010850;28;66378;-44
2021/12/28 09:47:27;;;;;;;7.10;6.70;;;;;;;33.00;55.82;100894.63;5007190;28;71581;-44
2021/12/28 09:50:01;;;;;;;7.85;7.22;;;;;;;33.05;55.85;100903.72;5013779;28;65795;-44
2021/12/28 09:52:32;;;;;;;7.25;6.82;;;;;;;33.03;55.63;100910.47;5012234;28;69829;-43
2021/12/28 09:55:02;;;;;;;7.45;6.95;;;;;;;33.06;55.90;100910.81;5017888;28;65730;-45
2021/12/28 09:57:33;;;;;;;7.13;6.63;;;;;;;33.07;55.62;100908.91;5012855;28;70318;-43
2021/12/28 10:00:07;;;;;;;7.40;6.90;;;;;;;32.90;55.66;100876.13;5010096;28;66369;-43
2021/12/28 10:02:38;;;;;;;7.22;6.72;;;;;;;33.08;55.48;100918.75;5011473;28;69918;-45
2021/12/28 10:05:12;;;;;;;7.90;7.18;;;;;;;32.86;55.37;100881.22;5011312;28;66441;-45
2021/12/28 10:07:50;;;;;;;8.02;6.50;;;;;;;33.03;55.16;100916.72;5009876;28;69469;-43
2021/12/28 10:10:21;;;;;;;8.23;6.65;;;;;;;33.06;55.55;100920.84;5004147;28;66135;-44
2021/12/28 10:12:58;;;;;;;7.03;6.55;;;;;;;33.07;55.46;100927.94;5007055;28;70234;-45
2021/12/28 10:15:33;;;;;;;7.38;6.75;;;;;;;32.97;55.25;100923.06;5015158;28;66706;-45
2021/12/28 10:18:09;;;;;;;7.28;6.25;;;;;;;33.08;55.38;100945.91;5010080;28;69680;-44
2021/12/28 10:20:51;;;;;;;7.07;6.47;;;;;;;32.86;55.34;100910.28;5005733;28;66230;-43
2021/12/28 10:23:25;;;;;;;7.03;6.63;;;;;;;32.83;55.75;100911.56;5009272;28;70199;-44
2021/12/28 10:25:58;;;;;;;7.18;6.47;;;;;;;33.01;55.58;100928.88;5010664;28;66259;-45
2021/12/28 10:28:39;;;;;;;6.90;6.30;;;;;;;33.01;56.34;100940.56;5010152;28;70053;-47
2021/12/28 10:31:18;;;;;;;12.97;6.77;;;;;;;32.98;56.65;100934.75;5011494;28;66655;-44
2021/12/28 10:33:56;;;;;;;7.95;7.03;;;;;;;33.08;56.49;100949.44;5006213;28;70298;-45
2021/12/28 10:36:33;;;;;;;11.15;6.55;;;;;;;32.94;56.14;100929.78;5013506;28;64943;-46
2021/12/28 10:39:06;;;;;;;6.90;5.90;;;;;;;33.11;56.00;100948.16;5015048;28;69641;-48
2021/12/28 10:41:42;;;;;;;6.55;5.85;;;;;;;32.93;55.42;100922.72;5014540;28;66308;-46
2021/12/28 10:44:13;;;;;;;6.28;5.70;;;;;;;33.12;55.14;100952.53;5009824;28;69074;-46
2021/12/28 10:46:43;;;;;;;12.23;6.30;;;;;;;33.13;55.28;100956.91;5012565;28;66549;-46
2021/12/28 10:49:14;;;;;;;16.25;6.25;;;;;;;33.12;55.63;100966.94;5006882;28;70373;-47
2021/12/28 10:51:46;;;;;;;5.88;4.88;;;;;;;33.15;55.60;100968.38;5028936;28;65743;-46
2021/12/28 10:54:17;;;;;;;8.18;5.75;;;;;;;33.11;55.40;100973.44;5008283;28;71160;-46
2021/12/28 10:56:57;;;;;;;15.43;6.28;;;;;;;33.13;55.59;100981.38;5015490;28;65416;-47
2021/12/28 10:59:33;;;;;;;16.58;7.38;;;;;;;33.14;55.90;100977.59;5010936;28;69823;-47
2021/12/28 11:02:04;;;;;;;19.25;9.65;;;;;;;33.12;56.23;100976.97;5006950;28;65965;-47
2021/12/28 11:04:38;;;;;;;18.15;7.82;;;;;;;33.13;56.68;100978.66;5012810;28;44035;-47
2021/12/28 11:07:09;;;;;;;20.63;7.28;;;;;;;33.11;56.93;100988.94;5010077;28;66118;-47
2021/12/28 11:09:49;;;;;;;14.30;7.90;;;;;;;33.09;57.33;100991.03;5016209;28;69374;-47
2021/12/28 11:12:20;;;;;;;13.85;7.85;;;;;;;33.09;57.04;101000.03;5016128;28;66394;-46
2021/12/28 11:14:51;;;;;;;11.98;9.50;;;;;;;33.10;57.48;100998.16;5011262;28;69628;-47
2021/12/28 11:17:31;;;;;;;18.00;7.50;;;;;;;33.06;58.04;100997.78;5016747;28;66282;-47
2021/12/28 11:20:02;;;;;;;15.55;7.43;;;;;;;33.05;58.11;101000.75;5016981;28;68969;-46
2021/12/28 11:22:34;;;;;;;14.90;7.00;;;;;;;33.05;58.76;101007.00;5032507;28;66460;-43
2021/12/28 11:25:18;;;;;;;17.83;7.07;;;;;;;32.94;57.25;101022.16;5008866;28;69459;-43
2021/12/28 11:28:14;;;;;;;11.70;6.78;;;;;;;32.70;54.60;101034.81;5014671;28;66693;-44
2021/12/28 11:31:03;;;;;;;7.45;6.75;;;;;;;32.51;53.19;101037.78;5013475;28;69206;-46
2021/12/28 11:34:08;;;;;;;7.47;6.15;;;;;;;32.29;52.80;101068.09;4987237;28;66772;-45
2021/12/28 11:36:54;;;;;;;7.60;6.75;;;;;;;32.24;52.42;101078.81;5012328;28;70298;-44
2021/12/28 11:39:35;;;;;;;6.65;5.97;;;;;;;31.82;52.71;101063.09;4993112;28;66227;-44